Time;durP1;ratioP1;P1;durP2;ratioP2;P2;SDS_P1;SDS_P2;PMS_P1;PMS_P2;Temp;Humidity;BMP_temperature;BMP_pressure;BME280_temperature;BME280_humidity;BME280_pressure;Samples;Min_cycle;Max_cycle;Signal;HPM_P1;HPM_P2
2023/05/20 00:02:03;;;;;;;4.70;2.57;;;;;;;11.22;100.00;102844.59;4993638;28;20185;-69
2023/05/20 00:04:29;;;;;;;5.10;2.97;;;;;;;11.15;100.00;102851.59;4989628;28;20193;-68
2023/05/20 00:06:54;;;;;;;7.23;3.33;;;;;;;10.79;100.00;102789.81;4985356;28;20741;-68
2023/05/20 00:09:20;;;;;;;5.67;2.60;;;;;;;11.09;100.00;102866.47;4987507;28;20185;-68
2023/05/20 00:11:45;;;;;;;6.20;2.83;;;;;;;11.32;100.00;102864.19;4987104;28;20186;-68
2023/05/20 00:14:11;;;;;;;6.23;2.40;;;;;;;10.94;100.00;102868.84;4986490;28;20212;-68
2023/05/20 00:16:37;;;;;;;8.03;3.00;;;;;;;11.02;100.00;102868.94;4982142;28;20235;-68
2023/05/20 00:19:02;;;;;;;6.23;2.53;;;;;;;11.05;100.00;102874.00;4986569;28;20183;-69
2023/05/20 00:21:28;;;;;;;5.33;2.63;;;;;;;11.17;100.00;102863.03;4982342;28;20197;-69
2023/05/20 00:23:55;;;;;;;4.87;2.60;;;;;;;10.98;100.00;102851.44;4989119;28;20187;-69
2023/05/20 00:26:20;;;;;;;5.47;3.20;;;;;;;11.04;100.00;102882.19;4987150;28;20439;-69
2023/05/20 00:28:46;;;;;;;8.90;2.87;;;;;;;11.20;100.00;102868.94;4989247;28;20452;-68
2023/05/20 00:31:11;;;;;;;9.90;3.00;;;;;;;11.10;100.00;102825.19;4990796;28;20689;-68
2023/05/20 00:33:37;;;;;;;6.80;2.80;;;;;;;11.47;100.00;102864.47;4987296;28;20218;-68
2023/05/20 00:36:03;;;;;;;4.40;2.70;;;;;;;11.26;100.00;102872.84;4983902;28;20181;-68
2023/05/20 00:38:28;;;;;;;6.83;2.87;;;;;;;11.00;100.00;102857.50;4986954;28;20880;-68
2023/05/20 00:40:54;;;;;;;5.20;3.13;;;;;;;10.97;100.00;102865.03;4992339;28;20190;-68
2023/05/20 00:43:19;;;;;;;5.63;2.87;;;;;;;11.16;100.00;102846.06;4989553;28;20282;-69
2023/05/20 00:45:46;;;;;;;6.50;3.33;;;;;;;11.20;100.00;102860.03;4984199;28;20182;-68
2023/05/20 00:48:12;;;;;;;5.80;2.53;;;;;;;11.28;100.00;102854.72;4992201;28;20210;-70
2023/05/20 00:50:38;;;;;;;6.03;2.97;;;;;;;11.07;100.00;102829.00;4984713;28;20444;-69
2023/05/20 00:53:05;;;;;;;6.43;2.80;;;;;;;11.06;100.00;102851.50;4990335;28;20209;-69
2023/05/20 00:55:31;;;;;;;7.40;3.40;;;;;;;11.20;100.00;102836.72;4987752;28;20452;-68
2023/05/20 00:57:57;;;;;;;5.87;3.17;;;;;;;11.16;100.00;102858.66;4979852;28;20466;-68
2023/05/20 01:00:23;;;;;;;6.43;3.07;;;;;;;10.95;100.00;102851.72;4990509;28;20811;-68
2023/05/20 01:02:48;;;;;;;8.30;3.50;;;;;;;10.92;100.00;102835.09;4991018;28;20464;-69
2023/05/20 01:05:14;;;;;;;6.20;2.80;;;;;;;10.21;100.00;102731.13;4988375;28;20183;-68
2023/05/20 01:07:39;;;;;;;6.37;2.63;;;;;;;10.73;100.00;102858.38;4985202;28;20793;-69
2023/05/20 01:10:06;;;;;;;6.73;3.40;;;;;;;10.66;100.00;102846.56;4977779;28;20221;-68
2023/05/20 01:12:41;;;;;;;4.93;3.03;;;;;;;10.56;100.00;102861.88;4983970;28;20298;-69
2023/05/20 01:15:07;;;;;;;4.13;3.13;;;;;;;10.57;100.00;102864.41;4988409;28;20850;-68
2023/05/20 01:17:38;;;;;;;5.07;2.60;;;;;;;10.55;100.00;102874.41;4985118;28;20459;-68
2023/05/20 01:20:08;;;;;;;8.13;2.30;;;;;;;10.38;100.00;102862.63;4991992;28;20456;-68
2023/05/20 01:22:46;;;;;;;5.50;2.67;;;;;;;10.36;100.00;102866.50;4992433;28;20445;-68
2023/05/20 01:25:11;;;;;;;4.87;3.80;;;;;;;10.25;100.00;102853.22;4984088;28;20450;-69
2023/05/20 01:27:36;;;;;;;5.90;2.90;;;;;;;10.34;100.00;102842.47;4990064;28;20464;-68
2023/05/20 01:30:02;;;;;;;4.00;2.73;;;;;;;10.51;100.00;102869.53;4987284;28;20192;-68
2023/05/20 01:32:32;;;;;;;6.77;2.67;;;;;;;10.75;100.00;102877.00;4975429;28;20205;-68
2023/05/20 01:34:59;;;;;;;7.13;3.10;;;;;;;10.51;100.00;102875.72;4993116;28;20186;-68
2023/05/20 01:37:26;;;;;;;5.63;2.90;;;;;;;10.15;100.00;102802.28;5005838;28;21048;-68
2023/05/20 01:39:52;;;;;;;5.83;2.43;;;;;;;10.63;100.00;102884.41;5004102;28;20436;-68
2023/05/20 01:42:18;;;;;;;3.40;2.30;;;;;;;10.55;100.00;102876.25;5000576;28;20417;-67
2023/05/20 01:44:44;;;;;;;7.60;2.97;;;;;;;10.33;100.00;102858.75;4995971;28;20530;-68
2023/05/20 01:47:09;;;;;;;4.60;2.70;;;;;;;10.89;100.00;102868.44;5000056;28;20448;-68
2023/05/20 01:49:35;;;;;;;5.33;2.83;;;;;;;11.05;100.00;102873.13;4993459;28;20536;-67
2023/05/20 01:52:01;;;;;;;4.00;2.80;;;;;;;10.64;100.00;102840.47;4992289;28;20651;-68
2023/05/20 01:54:26;;;;;;;2.97;1.90;;;;;;;10.80;100.00;102862.16;4993385;28;20539;-68
2023/05/20 01:56:52;;;;;;;5.37;2.73;;;;;;;10.93;100.00;102844.81;4992801;28;20268;-68
2023/05/20 01:59:17;;;;;;;5.10;2.80;;;;;;;11.02;100.00;102855.50;4996558;28;20579;-67
2023/05/20 02:01:43;;;;;;;3.17;2.20;;;;;;;10.79;100.00;102854.22;4995170;28;20197;-68
2023/05/20 02:04:08;;;;;;;3.70;2.40;;;;;;;10.78;100.00;102865.97;4993094;28;20200;-68
2023/05/20 02:06:34;;;;;;;4.50;2.20;;;;;;;10.88;100.00;102860.53;4991841;28;20252;-68
2023/05/20 02:08:59;;;;;;;3.57;2.50;;;;;;;10.68;100.00;102851.78;4989847;28;20281;-67
2023/05/20 02:11:25;;;;;;;2.53;2.10;;;;;;;10.77;100.00;102837.44;4993184;28;20197;-67
2023/05/20 02:13:50;;;;;;;4.23;2.20;;;;;;;10.76;100.00;102850.03;4983626;28;20216;-67
2023/05/20 02:16:16;;;;;;;4.60;2.20;;;;;;;10.88;100.00;102864.09;4989568;28;20196;-68
2023/05/20 02:18:42;;;;;;;4.03;1.97;;;;;;;10.97;100.00;102863.16;4988443;28;20192;-67
2023/05/20 02:21:08;;;;;;;4.23;2.10;;;;;;;10.90;100.00;102869.28;4983063;28;20279;-67
2023/05/20 02:23:34;;;;;;;2.73;2.10;;;;;;;10.69;100.00;102848.09;4989629;28;20537;-67
2023/05/20 02:25:59;;;;;;;2.83;1.93;;;;;;;11.08;100.00;102868.31;4989949;28;20189;-68
2023/05/20 02:28:25;;;;;;;7.70;2.17;;;;;;;10.77;100.00;102829.41;4991892;28;20212;-68
2023/05/20 02:30:51;;;;;;;2.80;1.80;;;;;;;10.56;100.00;102776.84;4999854;28;20186;-68
2023/05/20 02:33:17;;;;;;;2.70;1.77;;;;;;;11.12;100.00;102858.13;4991425;28;20201;-68
2023/05/20 02:35:42;;;;;;;2.60;1.70;;;;;;;10.90;100.00;102867.44;4987849;28;20197;-68
2023/05/20 02:38:08;;;;;;;3.73;1.57;;;;;;;10.81;100.00;102846.88;4997379;28;20464;-68
2023/05/20 02:40:33;;;;;;;4.13;1.47;;;;;;;10.68;100.00;102822.25;4992842;28;20730;-68
2023/05/20 02:43:00;;;;;;;3.43;1.27;;;;;;;10.81;100.00;102830.78;4990545;28;20281;-68
2023/05/20 02:45:26;;;;;;;2.23;1.53;;;;;;;10.71;100.00;102811.22;4991511;28;20950;-68
2023/05/20 02:47:51;;;;;;;3.63;1.60;;;;;;;10.92;100.00;102832.41;4995149;28;20469;-68
2023/05/20 02:50:17;;;;;;;4.20;1.50;;;;;;;10.99;100.00;102849.56;4995030;28;20191;-68
2023/05/20 02:52:42;;;;;;;1.63;1.10;;;;;;;11.00;100.00;102852.13;4990460;28;20208;-68
2023/05/20 02:55:08;;;;;;;2.23;1.50;;;;;;;10.86;100.00;102817.75;4990086;28;20194;-68
2023/05/20 02:57:37;;;;;;;1.93;1.37;;;;;;;11.16;100.00;102846.06;4993157;28;20635;-68
2023/05/20 03:00:05;;;;;;;2.27;1.20;;;;;;;11.20;100.00;102841.25;4989255;28;20456;-70
2023/05/20 03:02:30;;;;;;;3.40;1.80;;;;;;;10.87;100.00;102797.94;4988562;28;21384;-69
2023/05/20 03:04:56;;;;;;;2.50;1.40;;;;;;;10.92;100.00;102814.44;5001365;28;20454;-69
2023/05/20 03:07:21;;;;;;;3.77;1.47;;;;;;;11.08;100.00;102846.84;4994041;28;20223;-69
2023/05/20 03:09:47;;;;;;;2.20;1.37;;;;;;;11.15;100.00;102843.53;4994381;28;20195;-69
2023/05/20 03:12:13;;;;;;;1.80;1.30;;;;;;;11.12;100.00;102835.78;4992470;28;20613;-69
2023/05/20 03:14:38;;;;;;;2.53;1.33;;;;;;;10.94;100.00;102820.50;4976877;28;20237;-69
2023/05/20 03:17:04;;;;;;;2.90;1.40;;;;;;;10.98;100.00;102840.69;4985779;28;20214;-69
2023/05/20 03:19:29;;;;;;;3.27;1.20;;;;;;;10.94;100.00;102836.63;4990770;28;20204;-69
2023/05/20 03:21:55;;;;;;;3.97;1.60;;;;;;;11.11;100.00;102826.91;4988760;28;20181;-69
2023/05/20 03:24:22;;;;;;;3.23;1.60;;;;;;;10.86;100.00;102812.38;4986469;28;20189;-69
2023/05/20 03:26:48;;;;;;;4.37;1.10;;;;;;;10.96;100.00;102828.41;4976299;28;20584;-69
2023/05/20 03:29:13;;;;;;;3.10;1.30;;;;;;;11.15;100.00;102822.88;4994322;28;20499;-69
2023/05/20 03:31:39;;;;;;;2.73;1.20;;;;;;;11.24;100.00;102829.19;4996707;28;20224;-69
2023/05/20 03:34:04;;;;;;;2.00;1.30;;;;;;;11.09;100.00;102815.44;4996085;28;20233;-69
2023/05/20 03:36:30;;;;;;;1.60;1.30;;;;;;;11.10;100.00;102827.88;4995914;28;20208;-69
2023/05/20 03:38:55;;;;;;;2.00;1.47;;;;;;;11.09;100.00;102818.97;4998197;28;20216;-69
2023/05/20 03:41:21;;;;;;;2.97;1.60;;;;;;;10.79;100.00;102785.31;4997426;28;20188;-68
2023/05/20 03:43:46;;;;;;;2.20;1.30;;;;;;;10.83;100.00;102801.94;4997913;28;20287;-68
2023/05/20 03:46:12;;;;;;;3.07;1.33;;;;;;;11.15;100.00;102819.38;4999425;28;20193;-68
2023/05/20 03:48:37;;;;;;;2.20;1.10;;;;;;;11.06;100.00;102821.13;4999900;28;20197;-68
2023/05/20 03:51:03;;;;;;;2.37;1.20;;;;;;;10.84;100.00;102782.16;4996095;28;20272;-69
2023/05/20 03:53:28;;;;;;;1.67;1.10;;;;;;;11.13;100.00;102821.34;4992491;28;20748;-69
2023/05/20 03:55:54;;;;;;;1.47;1.17;;;;;;;11.04;100.00;102817.75;4994219;28;20667;-69
2023/05/20 03:58:19;;;;;;;1.90;1.23;;;;;;;10.90;100.00;102788.75;4991972;28;20688;-68
2023/05/20 04:00:46;;;;;;;1.27;1.00;;;;;;;10.82;100.00;102795.75;4991761;28;20185;-69
2023/05/20 04:03:11;;;;;;;2.77;1.40;;;;;;;10.83;100.00;102801.94;4981929;28;20189;-69
2023/05/20 04:05:37;;;;;;;1.40;1.20;;;;;;;11.26;100.00;102821.81;4987508;28;20866;-69
2023/05/20 04:08:03;;;;;;;1.70;1.20;;;;;;;10.90;100.00;102811.06;4982574;28;20221;-69
2023/05/20 04:10:30;;;;;;;3.10;1.60;;;;;;;10.70;100.00;102822.94;4986813;28;20734;-67
2023/05/20 04:12:56;;;;;;;2.00;1.30;;;;;;;10.76;100.00;102822.31;4985695;28;20469;-67
2023/05/20 04:15:25;;;;;;;3.97;1.20;;;;;;;11.00;100.00;102821.75;4988086;28;20834;-67
2023/05/20 04:17:51;;;;;;;1.80;1.03;;;;;;;10.81;100.00;102796.72;4981673;28;20670;-67
2023/05/20 04:20:17;;;;;;;1.40;1.03;;;;;;;10.52;100.00;102750.47;4989749;28;20485;-67
2023/05/20 04:22:43;;;;;;;2.00;0.97;;;;;;;10.71;100.00;102792.44;4983913;28;20500;-67
2023/05/20 04:25:09;;;;;;;1.47;0.87;;;;;;;10.90;100.00;102816.44;4982541;28;20448;-67
2023/05/20 04:27:36;;;;;;;1.67;1.13;;;;;;;10.47;100.00;102755.44;4983316;28;20467;-68
2023/05/20 04:30:02;;;;;;;1.43;1.10;;;;;;;10.78;100.00;102821.19;4989500;28;20185;-67
2023/05/20 04:32:29;;;;;;;1.73;1.10;;;;;;;10.90;100.00;102829.00;4988021;28;20825;-68
2023/05/20 04:34:55;;;;;;;1.80;0.90;;;;;;;10.94;100.00;102827.72;4994042;28;20451;-68
2023/05/20 04:37:21;;;;;;;1.43;1.23;;;;;;;10.75;100.00;102807.22;4993028;28;20487;-68
2023/05/20 04:39:48;;;;;;;2.00;1.10;;;;;;;10.97;100.00;102824.75;4983579;28;20468;-68
2023/05/20 04:42:16;;;;;;;1.13;0.93;;;;;;;10.92;100.00;102830.56;4988540;28;20437;-68
2023/05/20 04:44:44;;;;;;;2.70;1.10;;;;;;;10.83;100.00;102829.63;5008956;23;20508;-69
2023/05/20 04:47:10;;;;;;;2.00;1.07;;;;;;;10.72;100.00;102791.44;5001131;28;20455;-70
2023/05/20 04:49:36;;;;;;;2.13;0.90;;;;;;;10.82;100.00;102808.31;4997743;28;20448;-70
2023/05/20 04:52:03;;;;;;;1.30;0.93;;;;;;;10.90;100.00;102827.16;5001183;28;20440;-70
2023/05/20 04:54:29;;;;;;;2.00;1.30;;;;;;;10.87;100.00;102819.41;5002399;28;20468;-70
2023/05/20 04:56:55;;;;;;;2.30;0.93;;;;;;;11.12;100.00;102825.88;4999699;28;20468;-69
2023/05/20 04:59:21;;;;;;;3.50;1.00;;;;;;;11.01;100.00;102810.00;5003674;28;20459;-70
2023/05/20 05:01:46;;;;;;;2.17;1.00;;;;;;;10.74;100.00;102792.13;4995941;28;20200;-70
2023/05/20 05:04:12;;;;;;;1.57;0.90;;;;;;;10.97;100.00;102827.44;4993271;28;20200;-70
2023/05/20 05:06:37;;;;;;;1.40;1.07;;;;;;;11.21;100.00;102813.38;4993669;28;20192;-70
2023/05/20 05:09:03;;;;;;;1.47;1.00;;;;;;;11.27;100.00;102835.06;4998594;28;20193;-70
2023/05/20 05:11:29;;;;;;;2.90;1.07;;;;;;;11.11;100.00;102834.94;4995123;28;20220;-70
2023/05/20 05:13:55;;;;;;;1.90;1.13;;;;;;;10.60;100.00;102713.81;4990667;28;20319;-70
2023/05/20 05:16:21;;;;;;;1.50;1.10;;;;;;;11.22;100.00;102807.00;4993321;28;20181;-70
2023/05/20 05:18:46;;;;;;;1.57;1.13;;;;;;;10.77;100.00;102755.09;4999053;28;20864;-70
2023/05/20 05:21:12;;;;;;;2.90;1.00;;;;;;;10.99;100.00;102777.94;5002258;28;20612;-70
2023/05/20 05:23:37;;;;;;;1.63;1.00;;;;;;;11.17;100.00;102812.84;5005462;28;20693;-70
2023/05/20 05:26:02;;;;;;;2.90;1.20;;;;;;;11.19;100.00;102769.69;5001259;28;20189;-71
2023/05/20 05:28:28;;;;;;;1.50;1.10;;;;;;;11.35;100.00;102788.63;4998598;28;20197;-71
2023/05/20 05:30:57;;;;;;;1.77;1.00;;;;;;;11.05;100.00;102745.09;5008937;28;20203;-71
2023/05/20 05:33:22;;;;;;;2.13;1.07;;;;;;;10.89;100.00;102696.63;4994470;28;20236;-71
2023/05/20 05:35:49;;;;;;;5.70;1.07;;;;;;;11.70;100.00;102828.03;4999371;28;20945;-71
2023/05/20 05:38:15;;;;;;;1.77;1.10;;;;;;;11.04;100.00;102746.06;5011086;28;20559;-71
2023/05/20 05:40:41;;;;;;;1.23;1.00;;;;;;;11.61;100.00;102810.16;4997766;28;20435;-71
2023/05/20 05:43:06;;;;;;;2.63;1.37;;;;;;;11.37;100.00;102748.16;5002897;28;20451;-71
2023/05/20 05:45:32;;;;;;;1.33;1.00;;;;;;;11.46;100.00;102750.78;5006847;28;20725;-71
2023/05/20 05:47:57;;;;;;;3.00;0.90;;;;;;;11.42;100.00;102743.16;5006366;28;20696;-70
2023/05/20 05:50:22;;;;;;;2.20;1.10;;;;;;;11.64;100.00;102761.47;5010152;28;20661;-71
2023/05/20 05:52:48;;;;;;;2.93;1.07;;;;;;;12.07;100.00;102801.91;5010421;28;20205;-71
2023/05/20 05:55:13;;;;;;;1.57;0.90;;;;;;;12.00;100.00;102798.97;5008764;28;20193;-71
2023/05/20 05:57:39;;;;;;;1.20;0.90;;;;;;;11.70;100.00;102733.94;5008830;28;20552;-70
2023/05/20 06:00:05;;;;;;;1.53;0.93;;;;;;;12.08;100.00;102795.50;5011603;28;20666;-71
2023/05/20 06:02:34;;;;;;;2.00;1.00;;;;;;;11.68;100.00;102725.19;5005503;28;20204;-71
2023/05/20 06:05:02;;;;;;;2.17;0.93;;;;;;;11.76;100.00;102714.47;5007991;28;21042;-70
2023/05/20 06:07:27;;;;;;;1.27;0.97;;;;;;;12.09;100.00;102748.75;5005928;28;20808;-70
2023/05/20 06:09:53;;;;;;;1.37;0.90;;;;;;;11.94;100.00;102722.47;5011367;28;20423;-72
2023/05/20 06:12:18;;;;;;;2.17;1.20;;;;;;;12.40;100.00;102779.47;5009151;28;20638;-69
2023/05/20 06:14:44;;;;;;;2.10;0.83;;;;;;;11.76;100.00;102684.91;5010164;28;20209;-70
2023/05/20 06:17:09;;;;;;;2.70;1.07;;;;;;;11.62;100.00;102649.72;5006816;28;20189;-69
2023/05/20 06:19:35;;;;;;;2.20;1.13;;;;;;;12.51;100.00;102786.41;5007371;28;20395;-69
2023/05/20 06:22:00;;;;;;;2.00;1.10;;;;;;;12.66;100.00;102795.53;5005414;28;20189;-70
2023/05/20 06:24:25;;;;;;;1.30;1.00;;;;;;;12.68;100.00;102776.53;5001792;28;20217;-70
2023/05/20 06:26:51;;;;;;;1.87;0.90;;;;;;;12.66;100.00;102774.00;5005205;28;20193;-71
2023/05/20 06:29:16;;;;;;;1.30;1.00;;;;;;;12.31;100.00;102698.91;5006872;28;20252;-70
2023/05/20 06:31:42;;;;;;;2.97;0.87;;;;;;;12.63;100.00;102742.00;5001541;28;20195;-70
2023/05/20 06:34:07;;;;;;;1.60;0.90;;;;;;;12.78;100.00;102754.81;4999143;28;20295;-70
2023/05/20 06:36:33;;;;;;;1.77;1.00;;;;;;;12.94;100.00;102765.63;5000765;28;20243;-70
2023/05/20 06:38:58;;;;;;;1.70;0.87;;;;;;;12.35;100.00;102684.09;5005062;28;20189;-70
2023/05/20 06:41:24;;;;;;;1.73;0.97;;;;;;;13.08;100.00;102794.59;5007369;28;20189;-69
2023/05/20 06:43:49;;;;;;;3.07;1.07;;;;;;;12.98;100.00;102747.25;5004098;28;20296;-69
2023/05/20 06:46:14;;;;;;;2.07;0.80;;;;;;;13.06;100.00;102764.28;5004411;28;20192;-70
2023/05/20 06:48:40;;;;;;;1.33;0.90;;;;;;;13.21;100.00;102777.06;5004263;28;20200;-69
2023/05/20 06:51:08;;;;;;;1.17;0.80;;;;;;;13.28;100.00;102792.44;5003528;28;20549;-70
2023/05/20 06:53:34;;;;;;;1.60;1.00;;;;;;;13.00;100.00;102734.47;5008376;28;20687;-69
2023/05/20 06:55:59;;;;;;;1.00;0.77;;;;;;;12.61;100.00;102663.28;5001725;28;20443;-69
2023/05/20 06:58:25;;;;;;;1.87;1.10;;;;;;;12.98;100.00;102721.16;5001415;28;20466;-69
2023/05/20 07:00:50;;;;;;;1.50;0.80;;;;;;;13.33;100.00;102767.66;5008510;28;20549;-69
2023/05/20 07:03:16;;;;;;;2.97;1.00;;;;;;;13.01;100.00;102728.91;5008232;28;20556;-70
2023/05/20 07:05:41;;;;;;;1.23;0.80;;;;;;;13.35;100.00;102752.16;5009041;28;20547;-70
2023/05/20 07:08:07;;;;;;;3.90;1.20;;;;;;;13.45;100.00;102754.66;5008505;28;20243;-69
2023/05/20 07:10:33;;;;;;;1.80;0.80;;;;;;;13.33;100.00;102741.53;5001293;28;20192;-70
2023/05/20 07:12:58;;;;;;;2.10;0.90;;;;;;;12.99;100.00;102687.84;5007967;28;20315;-70
2023/05/20 07:15:24;;;;;;;2.87;1.10;;;;;;;13.24;100.00;102698.56;5005480;28;20440;-69
2023/05/20 07:17:49;;;;;;;1.10;0.80;;;;;;;13.66;100.00;102744.19;5009223;28;20189;-70
2023/05/20 07:20:15;;;;;;;2.53;1.10;;;;;;;13.65;100.00;102736.25;5007869;28;20267;-70
2023/05/20 07:22:40;;;;;;;1.53;0.87;;;;;;;13.13;100.00;102645.88;5008591;28;20185;-70
2023/05/20 07:25:06;;;;;;;1.73;1.10;;;;;;;13.79;100.00;102722.88;4999168;28;20216;-70
2023/05/20 07:27:32;;;;;;;1.47;1.00;;;;;;;13.78;100.00;102733.88;5005930;28;20201;-70
2023/05/20 07:29:57;;;;;;;2.10;1.10;;;;;;;13.28;100.00;102654.16;5005212;28;20452;-70
2023/05/20 07:32:22;;;;;;;1.30;0.80;;;;;;;12.80;100.00;102556.25;5006982;28;20201;-70
2023/05/20 07:34:48;;;;;;;2.10;1.17;;;;;;;13.68;100.00;102698.16;5006601;28;20757;-70
2023/05/20 07:37:14;;;;;;;1.33;0.83;;;;;;;13.22;100.00;102612.53;5007631;28;20212;-70
2023/05/20 07:39:40;;;;;;;1.80;1.30;;;;;;;13.26;100.00;102618.44;5008037;28;20284;-70
2023/05/20 07:42:06;;;;;;;1.63;1.00;;;;;;;13.90;100.00;102718.16;5008428;28;20519;-70
2023/05/20 07:44:31;;;;;;;1.70;1.20;;;;;;;13.14;100.00;102587.47;5005582;28;20570;-70
2023/05/20 07:46:56;;;;;;;3.33;0.97;;;;;;;13.98;100.00;102716.25;5006621;28;20546;-70
2023/05/20 07:49:22;;;;;;;2.20;1.10;;;;;;;14.07;100.00;102692.78;4999233;28;20223;-70
2023/05/20 07:51:47;;;;;;;1.20;0.83;;;;;;;13.32;100.00;102585.41;5007223;28;20662;-70
2023/05/20 07:54:14;;;;;;;1.33;0.90;;;;;;;14.28;100.00;102700.22;5006250;28;20279;-69
2023/05/20 07:56:39;;;;;;;2.50;0.97;;;;;;;14.01;100.00;102659.25;5014965;28;20189;-69
2023/05/20 07:59:05;;;;;;;1.87;0.97;;;;;;;14.40;100.00;102703.34;5014197;28;20463;-69
2023/05/20 08:01:31;;;;;;;1.43;0.90;;;;;;;14.45;100.00;102701.81;5008581;28;20188;-69
2023/05/20 08:03:56;;;;;;;2.70;1.10;;;;;;;14.45;100.00;102701.81;5007424;28;20201;-69
2023/05/20 08:06:25;;;;;;;1.40;1.00;;;;;;;13.98;100.00;102604.81;5006296;28;20244;-69
2023/05/20 08:08:53;;;;;;;3.17;0.90;;;;;;;14.51;100.00;102688.63;5000023;28;20292;-69
2023/05/20 08:11:20;;;;;;;1.03;0.93;;;;;;;14.00;100.00;102627.03;5016938;28;20450;-69
2023/05/20 08:13:46;;;;;;;2.17;1.00;;;;;;;14.60;100.00;102704.59;5003924;28;20484;-69
2023/05/20 08:16:11;;;;;;;1.27;1.10;;;;;;;14.06;100.00;102595.78;5005230;28;20865;-69
2023/05/20 08:18:37;;;;;;;1.97;1.10;;;;;;;14.82;100.00;102693.97;5005763;28;20656;-69
2023/05/20 08:21:03;;;;;;;2.40;1.03;;;;;;;14.83;100.00;102696.50;5013164;28;20192;-69
2023/05/20 08:23:29;;;;;;;2.53;1.07;;;;;;;14.69;100.00;102652.22;5005807;28;20213;-69
2023/05/20 08:25:56;;;;;;;1.23;0.90;;;;;;;14.85;100.00;102680.09;5006402;28;20442;-69
2023/05/20 08:28:21;;;;;;;1.90;1.10;;;;;;;15.01;100.00;102690.75;4998941;28;20193;-69
2023/05/20 08:30:47;;;;;;;3.27;1.03;;;;;;;14.55;100.00;102601.72;5005524;28;20939;-69
2023/05/20 08:33:13;;;;;;;1.77;1.20;;;;;;;15.14;100.00;102693.69;5005046;28;20209;-69
2023/05/20 08:35:39;;;;;;;1.30;0.93;;;;;;;14.66;100.00;102616.63;5001835;28;20193;-69
2023/05/20 08:38:05;;;;;;;1.13;1.03;;;;;;;14.60;100.00;102591.19;5006200;28;20181;-68
2023/05/20 08:40:33;;;;;;;2.60;1.10;;;;;;;15.01;100.00;102657.50;5007077;28;20470;-69
2023/05/20 08:43:00;;;;;;;5.40;1.47;;;;;;;14.55;100.00;102544.13;5012976;28;20435;-69
2023/05/20 08:45:27;;;;;;;2.20;1.57;;;;;;;15.35;100.00;102665.06;5004111;28;20472;-68
2023/05/20 08:47:53;;;;;;;1.80;1.50;;;;;;;14.78;100.00;102574.66;4998204;28;20487;-68
2023/05/20 08:50:19;;;;;;;3.70;1.23;;;;;;;15.45;100.00;102656.69;5007195;28;20458;-69
2023/05/20 08:52:46;;;;;;;4.53;1.20;;;;;;;15.04;100.00;102567.94;5003624;28;20205;-68
2023/05/20 08:55:29;;;;;;;3.60;1.40;;;;;;;15.55;100.00;102647.25;5006953;28;20258;-69
2023/05/20 08:57:55;;;;;;;2.10;1.07;;;;;;;14.88;100.00;102509.53;5003043;28;20423;-69
2023/05/20 09:00:27;;;;;;;1.50;1.00;;;;;;;14.75;100.00;102468.81;5005336;28;20439;-69
2023/05/20 09:02:54;;;;;;;3.47;1.40;;;;;;;15.16;100.00;102561.06;5000925;28;20680;-69
2023/05/20 09:05:20;;;;;;;1.70;1.00;;;;;;;15.13;100.00;102527.13;5005078;28;20424;-69
2023/05/20 09:07:46;;;;;;;1.30;1.07;;;;;;;15.52;100.00;102595.41;5014116;28;20429;-69
2023/05/20 09:10:11;;;;;;;2.10;1.10;;;;;;;15.40;100.00;102578.00;5006616;28;20462;-69
2023/05/20 09:12:40;;;;;;;2.00;1.27;;;;;;;15.76;100.00;102611.34;5004519;28;20820;-69
2023/05/20 09:15:06;;;;;;;2.90;1.40;;;;;;;15.96;100.00;102633.22;5005168;28;20216;-69
2023/05/20 09:17:35;;;;;;;1.87;1.23;;;;;;;15.77;100.00;102625.72;5005721;28;20432;-68
2023/05/20 09:20:05;;;;;;;1.80;1.20;;;;;;;16.00;100.00;102634.53;5005185;28;20448;-68
2023/05/20 09:22:30;;;;;;;1.73;1.40;;;;;;;16.17;100.00;102636.97;5006721;28;20468;-69
2023/05/20 09:24:56;;;;;;;4.23;1.60;;;;;;;15.23;100.00;102523.31;5008546;28;20471;-69
2023/05/20 09:27:23;;;;;;;1.90;1.30;;;;;;;15.07;100.00;102479.25;5010672;28;20201;-68
2023/05/20 09:29:49;;;;;;;2.40;1.57;;;;;;;15.64;100.00;102531.69;5007120;28;20533;-68
2023/05/20 09:32:15;;;;;;;2.60;1.17;;;;;;;16.32;100.00;102634.25;5007215;28;20428;-69
2023/05/20 09:34:41;;;;;;;3.33;1.57;;;;;;;16.24;100.00;102616.25;5000040;28;20519;-69
2023/05/20 09:37:08;;;;;;;2.00;1.20;;;;;;;16.39;100.00;102598.06;5009874;28;20184;-68
2023/05/20 09:39:44;;;;;;;1.97;1.20;;;;;;;16.47;100.00;102622.28;5003925;28;20462;-69
2023/05/20 09:42:20;;;;;;;3.90;1.23;;;;;;;16.36;100.00;102616.56;5005419;28;20527;-69
2023/05/20 09:44:47;;;;;;;2.40;1.20;;;;;;;16.43;100.00;102595.78;4999551;28;20472;-69
2023/05/20 09:47:15;;;;;;;2.20;1.30;;;;;;;15.93;100.00;102495.59;5010643;28;20420;-68
2023/05/20 09:49:42;;;;;;;3.03;1.37;;;;;;;16.27;100.00;102578.78;5007710;28;20440;-68
2023/05/20 09:52:08;;;;;;;2.37;1.30;;;;;;;16.25;100.00;102523.16;5009296;28;20523;-69
2023/05/20 09:54:35;;;;;;;3.87;1.50;;;;;;;16.44;100.00;102552.28;5008060;28;20838;-69
2023/05/20 09:57:02;;;;;;;2.37;1.57;;;;;;;15.86;100.00;102483.88;5007204;28;20193;-68
2023/05/20 09:59:30;;;;;;;2.13;1.37;;;;;;;16.72;100.00;102600.19;5008764;28;20439;-68
2023/05/20 10:01:55;;;;;;;2.20;1.30;;;;;;;17.01;100.00;102595.63;5009382;28;20913;-68
2023/05/20 10:04:23;;;;;;;2.70;1.20;;;;;;;16.54;100.00;102497.75;5008105;28;20482;-69
2023/05/20 10:07:22;;;;;;;1.90;1.30;;;;;;;16.88;100.00;102591.78;5007413;28;20507;-69
2023/05/20 10:10:16;;;;;;;5.20;1.50;;;;;;;16.52;100.00;102483.59;5005604;28;20532;-69
2023/05/20 10:12:57;;;;;;;2.47;1.73;;;;;;;16.31;100.00;102492.56;5000777;28;20510;-69
2023/05/20 10:15:35;;;;;;;2.80;1.30;;;;;;;16.46;100.00;102481.63;5008120;28;20424;-69
2023/05/20 10:18:26;;;;;;;3.00;1.67;;;;;;;17.19;100.00;102558.00;5007588;28;20416;-69
2023/05/20 10:20:52;;;;;;;2.40;1.57;;;;;;;17.00;100.00;102573.09;5008640;28;20430;-69
2023/05/20 10:23:22;;;;;;;1.40;1.10;;;;;;;16.92;100.00;102521.75;5004480;28;20836;-68
2023/05/20 10:25:54;;;;;;;1.63;1.30;;;;;;;17.12;100.00;102563.38;5008254;28;20695;-69
2023/05/20 10:28:36;;;;;;;3.03;1.50;;;;;;;16.59;100.00;102478.19;5002377;28;20494;-69
2023/05/20 10:31:13;;;;;;;2.07;1.30;;;;;;;17.09;100.00;102565.66;5006571;28;20456;-69
2023/05/20 10:33:43;;;;;;;1.90;1.17;;;;;;;16.13;100.00;102392.91;5004810;28;20482;-69
2023/05/20 10:36:09;;;;;;;2.07;1.40;;;;;;;16.64;100.00;102457.59;5007211;28;20452;-69
2023/05/20 10:38:34;;;;;;;3.90;1.50;;;;;;;16.04;100.00;102389.50;5005273;28;20541;-68
2023/05/20 10:41:12;;;;;;;2.67;1.30;;;;;;;16.70;100.00;102453.25;5008677;28;20314;-68
2023/05/20 10:43:37;;;;;;;2.53;1.50;;;;;;;17.36;100.00;102548.47;5013845;23;20988;-69
2023/05/20 10:46:03;;;;;;;1.97;1.23;;;;;;;17.45;100.00;102502.19;4996428;28;20800;-69
2023/05/20 10:48:32;;;;;;;2.93;1.43;;;;;;;17.78;100.00;102538.41;4998193;28;20775;-69
2023/05/20 10:51:02;;;;;;;3.43;1.60;;;;;;;17.60;100.00;102532.69;4998884;28;20186;-69
2023/05/20 10:53:30;;;;;;;2.93;1.53;;;;;;;17.42;100.00;102538.69;4999257;28;20469;-69
2023/05/20 10:55:55;;;;;;;2.53;1.50;;;;;;;17.42;100.00;102532.44;4997589;28;20441;-69
2023/05/20 10:58:23;;;;;;;6.93;1.53;;;;;;;17.56;100.00;102526.00;5000123;28;20943;-69
2023/05/20 11:00:51;;;;;;;2.53;1.40;;;;;;;17.73;100.00;102530.00;4998845;28;20211;-69
2023/05/20 11:03:20;;;;;;;2.57;1.40;;;;;;;17.48;100.00;102501.78;4997606;28;20441;-69
2023/05/20 11:05:47;;;;;;;2.60;1.37;;;;;;;17.89;100.00;102526.13;4993747;28;20449;-69
2023/05/20 11:08:13;;;;;;;3.93;1.90;;;;;;;17.70;100.00;102497.03;4995414;28;20440;-69
2023/05/20 11:10:40;;;;;;;2.33;1.40;;;;;;;17.67;100.00;102490.13;4994172;28;20455;-69
2023/05/20 11:13:06;;;;;;;2.40;1.43;;;;;;;17.96;100.00;102486.22;4995632;28;20475;-70
2023/05/20 11:15:33;;;;;;;2.50;1.57;;;;;;;18.37;100.00;102517.78;4997252;28;20429;-69